createdAt,value
2023-01-27T00:00:58.101Z,99950.91
2023-01-27T00:03:26.068Z,99950.03
2023-01-27T00:05:53.793Z,99957.19
2023-01-27T00:08:21.769Z,99949.50
2023-01-27T00:11:12.380Z,99941.34
2023-01-27T00:13:39.935Z,99938.94
2023-01-27T00:16:07.933Z,99939.00
2023-01-27T00:18:35.555Z,99943.13
2023-01-27T00:21:23.216Z,99931.00
2023-01-27T00:24:10.071Z,99934.66
2023-01-27T00:26:37.462Z,99935.59
2023-01-27T00:29:05.360Z,99938.22
2023-01-27T00:31:51.498Z,99936.53
2023-01-27T00:34:19.408Z,99925.87
2023-01-27T00:36:46.811Z,99929.25
2023-01-27T00:39:14.313Z,99926.31
2023-01-27T00:41:43.953Z,99927.91
2023-01-27T00:44:13.382Z,99915.34
2023-01-27T00:46:42.111Z,99937.47
2023-01-27T00:49:10.853Z,99932.72
2023-01-27T00:51:38.421Z,99937.38
2023-01-27T00:54:06.146Z,99937.22
2023-01-27T00:56:34.133Z,99940.56
2023-01-27T00:59:01.697Z,99935.84
2023-01-27T01:01:29.649Z,99937.78
2023-01-27T01:04:00.935Z,99939.81
2023-01-27T01:06:28.840Z,99932.66
2023-01-27T01:08:57.737Z,99941.81
2023-01-27T01:11:25.679Z,99935.97
2023-01-27T01:13:55.854Z,99931.78
2023-01-27T01:16:25.120Z,99936.88
2023-01-27T01:18:53.218Z,99938.78
2023-01-27T01:21:21.311Z,99929.28
2023-01-27T01:23:49.375Z,99936.59
2023-01-27T01:26:17.701Z,99931.19
2023-01-27T01:28:45.980Z,99927.41
2023-01-27T01:31:18.684Z,99932.91
2023-01-27T01:33:47.521Z,99932.78
2023-01-27T01:36:18.446Z,99919.03
2023-01-27T01:38:46.617Z,99921.56
2023-01-27T01:41:18.418Z,99917.03
2023-01-27T01:43:47.034Z,99919.78
2023-01-27T01:46:14.840Z,99921.75
2023-01-27T01:49:03.715Z,99919.03
2023-01-27T01:51:39.509Z,99922.56
2023-01-27T01:54:09.458Z,99925.25
2023-01-27T01:56:45.078Z,99923.03
2023-01-27T01:59:16.142Z,99927.31
2023-01-27T02:01:43.945Z,99923.06
2023-01-27T02:04:18.765Z,99923.16
2023-01-27T02:06:54.318Z,99925.94
2023-01-27T02:09:22.578Z,99915.34
2023-01-27T02:11:50.782Z,99913.03
2023-01-27T02:14:18.898Z,99911.16
2023-01-27T02:16:46.819Z,99912.88
2023-01-27T02:19:24.628Z,99900.84
2023-01-27T02:21:55.569Z,99893.78
2023-01-27T02:24:26.915Z,99898.97
2023-01-27T02:26:54.788Z,99892.88
2023-01-27T02:29:22.983Z,99886.09
2023-01-27T02:31:50.415Z,99887.75
2023-01-27T02:34:21.873Z,99881.63
2023-01-27T02:36:58.386Z,99883.53
2023-01-27T02:39:34.322Z,99880.78
2023-01-27T02:42:04.718Z,99871.41
2023-01-27T02:44:33.134Z,99870.22
2023-01-27T02:47:02.362Z,99865.38
2023-01-27T02:49:29.812Z,99857.59
2023-01-27T02:51:57.724Z,99861.69
2023-01-27T02:54:26.507Z,99861.78
2023-01-27T02:56:54.784Z,99857.88
2023-01-27T02:59:23.047Z,99853.34
2023-01-27T03:01:51.181Z,99855.25
2023-01-27T03:04:19.900Z,99858.69
2023-01-27T03:06:48.376Z,99854.75
2023-01-27T03:09:15.783Z,99856.53
2023-01-27T03:12:01.884Z,99852.12
2023-01-27T03:14:48.551Z,99841.63
2023-01-27T03:17:34.931Z,99848.94
2023-01-27T03:20:03.556Z,99844.50
2023-01-27T03:22:31.175Z,99842.84
2023-01-27T03:25:00.046Z,99834.81
2023-01-27T03:27:28.264Z,99843.69
2023-01-27T03:29:58.468Z,99840.19
2023-01-27T03:32:28.627Z,99836.44
2023-01-27T03:34:58.869Z,99834.97
2023-01-27T03:37:47.536Z,99836.72
2023-01-27T03:40:35.710Z,99837.75
2023-01-27T03:43:21.814Z,99838.94
2023-01-27T03:46:09.322Z,99830.25
2023-01-27T03:48:37.491Z,99824.09
2023-01-27T03:51:07.332Z,99817.75
2023-01-27T03:53:35.551Z,99829.00
2023-01-27T03:56:04.232Z,99820.28
2023-01-27T03:58:36.806Z,99821.28
2023-01-27T04:01:05.239Z,99817.72
2023-01-27T04:03:53.073Z,99807.25
2023-01-27T04:06:42.520Z,99808.91
2023-01-27T04:09:12.441Z,99809.06
2023-01-27T04:11:55.067Z,99802.31
2023-01-27T04:14:24.000Z,99810.19
2023-01-27T04:16:53.384Z,99802.16
2023-01-27T04:19:21.108Z,99805.72
2023-01-27T04:21:49.877Z,99804.00
2023-01-27T04:24:17.687Z,99798.66
2023-01-27T04:26:46.445Z,99802.31
2023-01-27T04:29:14.355Z,99799.62
2023-01-27T04:31:42.561Z,99804.13
2023-01-27T04:34:11.436Z,99798.22
2023-01-27T04:36:40.585Z,99802.53
2023-01-27T04:39:09.231Z,99799.25
2023-01-27T04:41:37.405Z,99800.03
2023-01-27T04:44:07.101Z,99812.19
2023-01-27T04:46:34.708Z,99801.81
2023-01-27T04:49:02.720Z,99811.56
2023-01-27T04:51:30.944Z,99813.88
2023-01-27T04:53:58.371Z,99815.78
2023-01-27T04:56:31.910Z,99813.00
2023-01-27T04:59:01.832Z,99819.22
2023-01-27T05:01:29.678Z,99819.09
2023-01-27T05:03:57.226Z,99819.31
2023-01-27T05:06:25.613Z,99834.19
2023-01-27T05:08:53.453Z,99827.00
2023-01-27T05:11:21.734Z,99827.19
2023-01-27T05:13:49.528Z,99830.56
2023-01-27T05:16:19.405Z,99831.66
2023-01-27T05:18:48.658Z,99817.00
2023-01-27T05:21:19.185Z,99821.16
2023-01-27T05:23:47.337Z,99819.47
2023-01-27T05:26:18.562Z,99822.97
2023-01-27T05:28:47.347Z,99820.25
2023-01-27T05:31:20.597Z,99822.00
2023-01-27T05:33:50.371Z,99826.37
2023-01-27T05:36:19.603Z,99822.12
2023-01-27T05:38:48.178Z,99823.81
2023-01-27T05:41:16.973Z,99823.03
2023-01-27T05:43:45.811Z,99817.81
2023-01-27T05:46:18.916Z,99832.00
2023-01-27T05:48:49.022Z,99825.84
2023-01-27T05:51:18.959Z,99822.47
2023-01-27T05:53:47.043Z,99828.34
2023-01-27T05:56:16.959Z,99825.84
2023-01-27T05:58:45.631Z,99835.78
2023-01-27T06:01:20.883Z,99831.31
2023-01-27T06:03:49.193Z,99832.87
2023-01-27T06:06:19.645Z,99836.47
2023-01-27T06:08:47.444Z,99834.78
2023-01-27T06:11:16.731Z,99836.62
2023-01-27T06:13:44.393Z,99831.19
2023-01-27T06:16:15.022Z,99827.03
2023-01-27T06:18:43.113Z,99829.59
2023-01-27T06:21:11.514Z,99827.00
2023-01-27T06:23:39.674Z,99818.31
2023-01-27T06:26:10.365Z,99821.00
2023-01-27T06:28:39.065Z,99815.66
2023-01-27T06:31:13.834Z,99824.41
2023-01-27T06:33:41.745Z,99818.25
2023-01-27T06:36:11.781Z,99826.22
2023-01-27T06:38:39.220Z,99824.50
2023-01-27T06:41:07.448Z,99823.41
2023-01-27T06:43:35.186Z,99823.75
2023-01-27T06:46:05.530Z,99826.25
2023-01-27T06:48:34.095Z,99833.25
2023-01-27T06:51:01.926Z,99833.06
2023-01-27T06:53:29.651Z,99833.84
2023-01-27T06:55:58.796Z,99839.22
2023-01-27T06:58:27.465Z,99834.06
2023-01-27T07:00:55.646Z,99827.47
2023-01-27T07:03:23.982Z,99839.75
2023-01-27T07:05:52.373Z,99837.34
2023-01-27T07:08:19.918Z,99836.06
2023-01-27T07:10:47.606Z,99821.34
2023-01-27T07:13:15.727Z,99833.56
2023-01-27T07:15:43.608Z,99826.37
2023-01-27T07:18:13.777Z,99819.38
2023-01-27T07:20:41.744Z,99838.31
2023-01-27T07:23:10.738Z,99834.63
2023-01-27T07:25:39.444Z,99838.31
2023-01-27T07:28:07.188Z,99833.03
2023-01-27T07:30:35.053Z,99835.00
2023-01-27T07:33:07.738Z,99834.66
2023-01-27T07:35:35.722Z,99844.12
2023-01-27T07:38:03.976Z,99842.47
2023-01-27T07:40:31.582Z,99845.94
2023-01-27T07:42:59.792Z,99838.47
2023-01-27T07:45:28.926Z,99844.25
2023-01-27T07:48:01.343Z,99833.47
2023-01-27T07:50:29.510Z,99828.22
2023-01-27T07:53:01.608Z,99824.78
2023-01-27T07:55:30.213Z,99818.91
2023-01-27T07:57:57.802Z,99819.41
2023-01-27T08:00:25.424Z,99818.25
2023-01-27T08:02:54.174Z,99820.94
2023-01-27T08:05:22.955Z,99824.06
2023-01-27T08:07:51.261Z,99825.06
2023-01-27T08:10:19.884Z,99837.50
2023-01-27T08:12:47.897Z,99838.81
2023-01-27T08:15:18.699Z,99832.97
2023-01-27T08:17:57.300Z,99836.69
2023-01-27T08:20:26.489Z,99835.13
2023-01-27T08:22:54.576Z,99828.63
2023-01-27T08:25:22.303Z,99835.88
2023-01-27T08:27:54.328Z,99833.50
2023-01-27T08:30:23.061Z,99838.75
2023-01-27T08:32:50.498Z,99843.88
2023-01-27T08:35:18.116Z,99836.66
2023-01-27T08:37:48.406Z,99830.28
2023-01-27T08:40:17.045Z,99830.31
2023-01-27T08:42:44.661Z,99834.00
2023-01-27T08:45:12.934Z,99837.25
2023-01-27T08:47:40.318Z,99834.53
2023-01-27T08:50:09.352Z,99838.72
2023-01-27T08:52:37.233Z,99839.53
2023-01-27T08:55:05.256Z,99849.00
2023-01-27T08:57:34.238Z,99841.94
2023-01-27T09:00:05.179Z,99843.84
2023-01-27T09:02:32.944Z,99850.81
2023-01-27T09:05:00.613Z,99842.66
2023-01-27T09:07:28.441Z,99839.13
2023-01-27T09:10:07.693Z,99854.78
2023-01-27T09:12:41.385Z,99847.94
2023-01-27T09:15:09.502Z,99857.31
2023-01-27T09:17:37.322Z,99858.91
2023-01-27T09:20:05.736Z,99856.91
2023-01-27T09:22:33.239Z,99858.09
2023-01-27T09:25:00.861Z,99853.22
2023-01-27T09:27:38.845Z,99860.12
2023-01-27T09:30:09.099Z,99864.66
2023-01-27T09:32:37.780Z,99860.38
2023-01-27T09:35:06.022Z,99861.03
2023-01-27T09:37:57.177Z,99867.38
2023-01-27T09:40:43.594Z,99863.91
2023-01-27T09:43:42.165Z,99856.59
2023-01-27T09:46:47.389Z,99862.84
2023-01-27T09:49:39.838Z,99869.94
2023-01-27T09:52:45.428Z,99866.25
2023-01-27T09:55:36.186Z,99867.66
2023-01-27T09:58:39.753Z,99862.44
2023-01-27T10:01:48.959Z,99874.56
2023-01-27T10:04:35.630Z,99870.34
2023-01-27T10:07:21.936Z,99870.28
2023-01-27T10:10:08.449Z,99863.50
2023-01-27T10:13:14.150Z,99864.44
2023-01-27T10:15:56.665Z,99868.47
2023-01-27T10:18:40.307Z,99857.16
2023-01-27T10:21:53.530Z,99857.78
2023-01-27T10:24:42.590Z,99864.19
2023-01-27T10:27:18.027Z,99857.16
2023-01-27T10:30:00.117Z,99859.16
2023-01-27T10:32:32.596Z,99854.66
2023-01-27T10:35:09.676Z,99855.38
2023-01-27T10:37:43.881Z,99857.31
2023-01-27T10:40:36.714Z,99852.53
2023-01-27T10:43:16.843Z,99853.03
2023-01-27T10:45:52.502Z,99855.56
2023-01-27T10:48:30.581Z,99848.31
2023-01-27T10:51:20.217Z,99839.44
2023-01-27T10:53:58.266Z,99844.09
2023-01-27T10:56:52.198Z,99853.03
2023-01-27T10:59:38.794Z,99852.47
2023-01-27T11:02:09.524Z,99844.69
2023-01-27T11:04:43.100Z,99848.28
2023-01-27T11:07:16.774Z,99843.13
2023-01-27T11:09:49.587Z,99839.56
2023-01-27T11:12:20.662Z,99839.19
2023-01-27T11:14:51.267Z,99838.16
2023-01-27T11:17:29.122Z,99828.34
2023-01-27T11:20:04.850Z,99825.78
2023-01-27T11:22:47.728Z,99830.16
2023-01-27T11:25:27.059Z,99823.78
2023-01-27T11:28:17.781Z,99821.56
2023-01-27T11:31:10.906Z,99824.25
2023-01-27T11:34:06.532Z,99822.44
2023-01-27T11:36:35.029Z,99826.37
2023-01-27T11:39:04.818Z,99817.00
2023-01-27T11:41:46.568Z,99815.63
2023-01-27T11:44:30.149Z,99812.66
2023-01-27T11:46:58.015Z,99810.91
2023-01-27T11:49:35.380Z,99803.63
2023-01-27T11:52:29.279Z,99798.53
2023-01-27T11:55:00.188Z,99800.09
2023-01-27T11:57:28.358Z,99789.88
2023-01-27T12:00:00.170Z,99782.38
2023-01-27T12:02:31.001Z,99782.88
2023-01-27T12:05:09.672Z,99775.56
2023-01-27T12:07:49.981Z,99772.69
2023-01-27T12:10:35.481Z,99766.41
2023-01-27T12:13:17.646Z,99765.25
2023-01-27T12:15:47.984Z,99769.22
2023-01-27T12:18:16.212Z,99767.38
2023-01-27T12:20:45.406Z,99763.81
2023-01-27T12:23:26.651Z,99759.53
2023-01-27T12:25:59.517Z,99765.94
2023-01-27T12:28:33.025Z,99755.09
2023-01-27T12:31:27.645Z,99758.84
2023-01-27T12:34:08.300Z,99743.81
2023-01-27T12:36:43.635Z,99745.31
2023-01-27T12:39:30.027Z,99742.09
2023-01-27T12:41:57.851Z,99733.41
2023-01-27T12:44:29.325Z,99740.28
2023-01-27T12:47:00.863Z,99743.47
2023-01-27T12:49:38.060Z,99753.69
2023-01-27T12:52:08.551Z,99745.38
2023-01-27T12:54:36.390Z,99742.03
2023-01-27T12:57:15.577Z,99742.34
2023-01-27T12:59:51.495Z,99738.94
2023-01-27T13:02:21.064Z,99738.94
2023-01-27T13:04:55.106Z,99737.13
2023-01-27T13:07:29.824Z,99744.53
2023-01-27T13:10:04.045Z,99742.81
2023-01-27T13:12:38.191Z,99736.31
2023-01-27T13:15:16.188Z,99739.47
2023-01-27T13:17:46.561Z,99741.00
2023-01-27T13:20:36.815Z,99750.88
2023-01-27T13:23:26.896Z,99749.63
2023-01-27T13:25:59.285Z,99752.72
2023-01-27T13:28:46.130Z,99762.94
2023-01-27T13:32:17.545Z,99766.47
2023-01-27T13:35:00.587Z,99769.81
2023-01-27T13:37:33.602Z,99761.97
2023-01-27T13:40:24.305Z,99765.88
2023-01-27T13:42:57.979Z,99768.16
2023-01-27T13:45:33.292Z,99763.22
2023-01-27T13:48:25.072Z,99772.37
2023-01-27T13:50:58.759Z,99769.09
2023-01-27T13:53:26.466Z,99771.22
2023-01-27T13:56:31.252Z,99773.69
2023-01-27T13:59:20.937Z,99774.47
2023-01-27T14:02:06.604Z,99775.50
2023-01-27T14:04:56.293Z,99770.91
2023-01-27T14:07:32.807Z,99766.19
2023-01-27T14:10:19.215Z,99769.28
2023-01-27T14:13:18.960Z,99768.50
2023-01-27T14:16:07.960Z,99767.16
2023-01-27T14:19:01.719Z,99767.44
2023-01-27T14:21:58.873Z,99756.94
2023-01-27T14:24:43.728Z,99759.56
2023-01-27T14:27:35.599Z,99767.31
2023-01-27T14:30:15.765Z,99774.06
2023-01-27T14:32:56.243Z,99767.16
2023-01-27T14:35:40.851Z,99776.03
2023-01-27T14:38:30.348Z,99766.50
2023-01-27T14:41:19.840Z,99764.97
2023-01-27T14:44:09.349Z,99756.53
2023-01-27T14:47:12.284Z,99759.63
2023-01-27T14:50:06.320Z,99759.56
2023-01-27T14:52:45.110Z,99761.12
2023-01-27T14:55:33.291Z,99766.22
2023-01-27T14:58:22.774Z,99768.81
2023-01-27T15:01:02.852Z,99769.06
2023-01-27T15:03:48.854Z,99767.53
2023-01-27T15:06:29.612Z,99763.06
2023-01-27T15:09:20.272Z,99762.38
2023-01-27T15:12:00.969Z,99766.56
2023-01-27T15:14:44.231Z,99759.22
2023-01-27T15:17:21.025Z,99763.13
2023-01-27T15:20:11.903Z,99764.13
2023-01-27T15:22:54.910Z,99762.28
2023-01-27T15:25:31.042Z,99762.59
2023-01-27T15:28:00.314Z,99765.06
2023-01-27T15:30:34.893Z,99766.72
2023-01-27T15:33:02.956Z,99777.59
2023-01-27T15:35:37.985Z,99767.97
2023-01-27T15:38:08.177Z,99773.56
2023-01-27T15:41:13.918Z,99779.59
2023-01-27T15:44:04.119Z,99789.63
2023-01-27T15:46:36.087Z,99796.50
2023-01-27T15:49:05.196Z,99788.09
2023-01-27T15:51:36.222Z,99787.25
2023-01-27T15:54:04.467Z,99792.69
2023-01-27T15:56:43.091Z,99775.91
2023-01-27T15:59:17.503Z,99783.19
2023-01-27T16:01:47.839Z,99787.50
2023-01-27T16:04:16.854Z,99784.59
2023-01-27T16:06:48.620Z,99786.19
2023-01-27T16:09:34.081Z,99784.09
2023-01-27T16:12:27.343Z,99790.03
2023-01-27T16:15:00.895Z,99793.19
2023-01-27T16:17:32.854Z,99794.47
2023-01-27T16:20:25.248Z,99802.22
2023-01-27T16:23:02.043Z,99801.16
2023-01-27T16:25:43.260Z,99800.19
2023-01-27T16:28:23.710Z,99800.72
2023-01-27T16:31:00.525Z,99801.06
2023-01-27T16:33:48.453Z,99809.22
2023-01-27T16:36:21.054Z,99810.06
2023-01-27T16:38:48.458Z,99811.22
2023-01-27T16:41:28.952Z,99811.97
2023-01-27T16:44:03.038Z,99827.44
2023-01-27T16:46:39.962Z,99824.25
2023-01-27T16:49:14.132Z,99831.69
2023-01-27T16:51:42.337Z,99833.81
2023-01-27T16:54:25.197Z,99838.81
2023-01-27T16:56:52.865Z,99836.62
2023-01-27T16:59:26.815Z,99835.50
2023-01-27T17:01:59.794Z,99843.59
2023-01-27T17:04:28.359Z,99844.66
2023-01-27T17:07:07.011Z,99838.16
2023-01-27T17:09:40.750Z,99836.84
2023-01-27T17:12:31.090Z,99841.22
2023-01-27T17:14:59.646Z,99845.19
2023-01-27T17:17:29.912Z,99849.88
2023-01-27T17:20:05.892Z,99851.00
2023-01-27T17:22:39.437Z,99851.38
2023-01-27T17:25:25.507Z,99850.63
2023-01-27T17:27:53.347Z,99859.06
2023-01-27T17:30:24.153Z,99849.28
2023-01-27T17:32:54.347Z,99853.47
2023-01-27T17:35:43.089Z,99849.53
2023-01-27T17:38:20.094Z,99846.13
2023-01-27T17:40:49.730Z,99844.66
2023-01-27T17:43:34.741Z,99851.09
2023-01-27T17:46:05.679Z,99849.50
2023-01-27T17:48:35.102Z,99847.63
2023-01-27T17:51:02.910Z,99847.09
2023-01-27T17:53:32.684Z,99853.72
2023-01-27T17:56:00.860Z,99853.06
2023-01-27T17:58:28.704Z,99853.09
2023-01-27T18:00:56.564Z,99860.25
2023-01-27T18:03:32.818Z,99855.44
2023-01-27T18:06:02.362Z,99855.59
2023-01-27T18:08:35.157Z,99853.81
2023-01-27T18:11:31.419Z,99853.34
2023-01-27T18:14:09.181Z,99859.44
2023-01-27T18:16:36.788Z,99860.38
2023-01-27T18:19:19.339Z,99856.78
2023-01-27T18:21:47.258Z,99861.97
2023-01-27T18:24:23.318Z,99862.88
2023-01-27T18:26:51.054Z,99872.81
2023-01-27T18:29:45.164Z,99863.03
2023-01-27T18:32:19.464Z,99875.56
2023-01-27T18:34:55.840Z,99867.28
2023-01-27T18:37:32.951Z,99867.25
2023-01-27T18:40:02.496Z,99870.81
2023-01-27T18:42:31.749Z,99872.13
2023-01-27T18:44:59.430Z,99871.66
2023-01-27T18:47:34.363Z,99871.06
2023-01-27T18:50:07.472Z,99873.91
2023-01-27T18:52:35.700Z,99871.91
2023-01-27T18:55:17.125Z,99867.09
2023-01-27T18:57:46.584Z,99876.63
2023-01-27T19:00:37.888Z,99874.44
2023-01-27T19:03:12.023Z,99877.09
2023-01-27T19:05:40.483Z,99873.34
2023-01-27T19:08:13.571Z,99869.53
2023-01-27T19:10:41.585Z,99871.94
2023-01-27T19:13:09.988Z,99878.66
2023-01-27T19:15:40.043Z,99872.37
2023-01-27T19:18:15.156Z,99880.19
2023-01-27T19:20:43.313Z,99883.38
2023-01-27T19:23:14.194Z,99873.22
2023-01-27T19:25:42.348Z,99871.66
2023-01-27T19:28:21.167Z,99874.44
2023-01-27T19:30:48.635Z,99870.66
2023-01-27T19:33:22.732Z,99873.00
2023-01-27T19:36:16.873Z,99879.34
2023-01-27T19:38:44.813Z,99883.09
2023-01-27T19:41:12.597Z,99883.91
2023-01-27T19:43:41.900Z,99879.84
2023-01-27T19:46:14.425Z,99891.06
2023-01-27T19:48:42.216Z,99887.78
2023-01-27T19:51:11.729Z,99891.00
2023-01-27T19:53:39.328Z,99893.00
2023-01-27T19:56:16.046Z,99892.31
2023-01-27T19:58:52.844Z,99897.44
2023-01-27T20:01:23.463Z,99902.03
2023-01-27T20:03:52.680Z,99907.94
2023-01-27T20:06:26.706Z,99912.81
2023-01-27T20:08:56.649Z,99907.75
2023-01-27T20:11:37.212Z,99906.88
2023-01-27T20:14:15.556Z,99916.13
2023-01-27T20:16:43.580Z,99915.66
2023-01-27T20:19:15.801Z,99919.31
2023-01-27T20:21:44.807Z,99919.72
2023-01-27T20:24:15.051Z,99917.66
2023-01-27T20:26:42.607Z,99928.00
2023-01-27T20:29:10.217Z,99922.09
2023-01-27T20:31:39.067Z,99924.59
2023-01-27T20:34:07.144Z,99921.91
2023-01-27T20:36:34.666Z,99921.88
2023-01-27T20:39:02.794Z,99919.66
2023-01-27T20:41:30.205Z,99922.44
2023-01-27T20:44:00.428Z,99923.59
2023-01-27T20:46:29.179Z,99918.69
2023-01-27T20:48:58.596Z,99934.78
2023-01-27T20:51:26.248Z,99921.25
2023-01-27T20:53:54.075Z,99928.75
2023-01-27T20:56:23.641Z,99931.28
2023-01-27T20:58:51.467Z,99934.50
2023-01-27T21:01:22.141Z,99928.97
2023-01-27T21:03:50.727Z,99928.78
2023-01-27T21:06:20.086Z,99929.94
2023-01-27T21:08:49.428Z,99939.19
2023-01-27T21:11:18.839Z,99937.06
2023-01-27T21:13:46.839Z,99933.19
2023-01-27T21:16:15.068Z,99931.09
2023-01-27T21:18:44.148Z,99933.09
2023-01-27T21:21:27.300Z,99932.81
2023-01-27T21:23:55.800Z,99931.41
2023-01-27T21:26:23.911Z,99929.25
2023-01-27T21:28:51.849Z,99929.25
2023-01-27T21:31:21.283Z,99931.34
2023-01-27T21:33:50.186Z,99935.13
2023-01-27T21:36:18.523Z,99929.56
2023-01-27T21:38:46.824Z,99931.41
2023-01-27T21:41:45.752Z,99931.22
2023-01-27T21:44:35.377Z,99924.37
2023-01-27T21:47:03.284Z,99927.19
2023-01-27T21:49:34.303Z,99933.75
2023-01-27T21:52:01.861Z,99929.59
2023-01-27T21:54:29.611Z,99928.31
2023-01-27T21:56:57.446Z,99934.97
2023-01-27T21:59:24.967Z,99935.25
2023-01-27T22:01:55.283Z,99939.63
2023-01-27T22:04:23.197Z,99937.66
2023-01-27T22:06:50.873Z,99938.91
2023-01-27T22:09:24.232Z,99940.50
2023-01-27T22:11:52.085Z,99941.38
2023-01-27T22:14:19.630Z,99934.56
2023-01-27T22:16:47.135Z,99942.22
2023-01-27T22:19:15.041Z,99946.84
2023-01-27T22:21:42.546Z,99935.97
2023-01-27T22:24:10.268Z,99940.59
2023-01-27T22:26:38.272Z,99941.75
2023-01-27T22:29:05.731Z,99934.06
2023-01-27T22:31:33.191Z,99939.34
2023-01-27T22:34:01.187Z,99944.09
2023-01-27T22:36:28.747Z,99932.59
2023-01-27T22:38:56.292Z,99939.84
2023-01-27T22:41:24.087Z,99939.63
2023-01-27T22:43:51.988Z,99927.03
2023-01-27T22:46:19.367Z,99937.66
2023-01-27T22:48:47.645Z,99930.72
2023-01-27T22:51:15.149Z,99926.50
2023-01-27T22:53:42.603Z,99929.34
2023-01-27T22:56:10.373Z,99921.19
2023-01-27T22:58:37.841Z,99923.59
2023-01-27T23:01:06.780Z,99926.38
2023-01-27T23:03:34.809Z,99927.34
2023-01-27T23:06:06.642Z,99920.88
2023-01-27T23:08:35.122Z,99929.06
2023-01-27T23:11:04.504Z,99930.88
2023-01-27T23:13:32.533Z,99926.00
2023-01-27T23:16:00.677Z,99929.06
2023-01-27T23:18:28.220Z,99929.06
2023-01-27T23:20:55.656Z,99930.84
2023-01-27T23:23:23.379Z,99929.28
2023-01-27T23:25:50.878Z,99931.28
2023-01-27T23:28:19.563Z,99930.31
2023-01-27T23:30:49.194Z,99926.03
2023-01-27T23:33:18.185Z,99931.03
2023-01-27T23:35:46.253Z,99931.94
2023-01-27T23:38:30.550Z,99928.38
2023-01-27T23:41:01.604Z,99932.03
2023-01-27T23:43:31.054Z,99923.59
2023-01-27T23:45:58.734Z,99918.09
2023-01-27T23:48:26.448Z,99928.09
2023-01-27T23:50:54.733Z,99928.28
2023-01-27T23:53:22.388Z,99923.59
2023-01-27T23:55:57.726Z,99931.75
2023-01-27T23:58:26.505Z,99930.47
